Time;durP1;ratioP1;P1;durP2;ratioP2;P2;SDS_P1;SDS_P2;PMS_P1;PMS_P2;Temp;Humidity;BMP_temperature;BMP_pressure;BME280_temperature;BME280_humidity;BME280_pressure;Samples;Min_cycle;Max_cycle;Signal;HPM_P1;HPM_P2
2023/02/01 00:00:13;;;;;;;21.30;10.10;;;7.40;99.90;;;;;;5013754;28;20436;-56
2023/02/01 00:02:40;;;;;;;16.33;9.13;;;7.40;99.90;;;;;;5013301;28;20453;-56
2023/02/01 00:05:08;;;;;;;18.43;9.87;;;7.40;99.90;;;;;;5013889;28;20960;-56
2023/02/01 00:07:37;;;;;;;21.50;10.03;;;7.40;99.90;;;;;;5013919;28;20447;-56
2023/02/01 00:10:05;;;;;;;24.27;10.53;;;7.40;99.90;;;;;;5014574;28;20487;-56
2023/02/01 00:12:32;;;;;;;18.83;9.10;;;7.40;99.90;;;;;;5014250;28;20456;-57
2023/02/01 00:14:59;;;;;;;14.23;8.10;;;7.40;99.90;;;;;;5014763;28;20809;-56
2023/02/01 00:17:26;;;;;;;27.27;7.80;;;7.40;99.90;;;;;;5014691;28;20452;-56
2023/02/01 00:19:53;;;;;;;19.60;7.73;;;7.40;99.90;;;;;;5015271;28;20456;-56
2023/02/01 00:22:19;;;;;;;13.50;7.07;;;7.30;99.90;;;;;;5015725;28;20467;-56
2023/02/01 00:24:48;;;;;;;21.77;7.77;;;7.30;99.90;;;;;;5015652;28;20475;-56
2023/02/01 00:27:17;;;;;;;23.77;6.57;;;7.30;99.90;;;;;;5015794;28;20488;-56
2023/02/01 00:29:45;;;;;;;19.60;6.70;;;7.20;99.90;;;;;;5015861;28;20537;-57
2023/02/01 00:32:12;;;;;;;12.77;6.07;;;7.30;99.90;;;;;;5013838;28;20428;-56
2023/02/01 00:34:39;;;;;;;16.80;6.53;;;7.20;99.90;;;;;;5012289;28;20472;-56
2023/02/01 00:37:06;;;;;;;15.97;6.00;;;7.20;99.90;;;;;;5013367;28;20453;-56
2023/02/01 00:39:33;;;;;;;16.67;5.90;;;7.10;99.90;;;;;;5013420;28;20478;-56
2023/02/01 00:42:02;;;;;;;11.10;4.90;;;7.10;99.90;;;;;;5013239;28;20963;-56
2023/02/01 00:44:32;;;;;;;15.10;4.40;;;7.10;99.90;;;;;;5013063;28;20471;-56
2023/02/01 00:47:00;;;;;;;17.07;5.00;;;7.00;99.90;;;;;;5016832;28;20434;-56
2023/02/01 00:49:27;;;;;;;14.73;4.93;;;7.00;99.90;;;;;;5016767;28;20427;-56
2023/02/01 00:51:54;;;;;;;16.47;5.10;;;7.00;99.90;;;;;;5016684;28;20451;-56
2023/02/01 00:54:20;;;;;;;13.30;4.53;;;7.00;99.90;;;;;;5016593;28;20474;-56
2023/02/01 00:56:47;;;;;;;13.10;4.30;;;7.00;99.90;;;;;;5016689;28;20434;-56
2023/02/01 00:59:16;;;;;;;14.23;4.27;;;6.90;99.90;;;;;;5016270;28;20827;-56
2023/02/01 01:01:42;;;;;;;16.47;5.10;;;6.90;99.90;;;;;;5016154;28;20965;-56
2023/02/01 01:04:09;;;;;;;12.17;4.80;;;6.80;99.90;;;;;;5016178;28;20474;-56
2023/02/01 01:06:36;;;;;;;13.30;4.17;;;6.80;99.90;;;;;;5016427;28;20450;-56
2023/02/01 01:09:05;;;;;;;16.27;4.20;;;6.70;99.90;;;;;;5016533;28;20455;-56
2023/02/01 01:11:34;;;;;;;12.03;4.40;;;6.70;99.90;;;;;;5016309;28;20474;-56
2023/02/01 01:14:01;;;;;;;11.83;4.50;;;6.70;99.90;;;;;;5016288;28;20466;-56
2023/02/01 01:16:31;;;;;;;15.10;4.60;;;6.60;99.90;;;;;;5016298;28;20454;-56
2023/02/01 01:18:59;;;;;;;16.33;3.90;;;6.60;99.90;;;;;;5016885;28;20959;-56
2023/02/01 01:21:26;;;;;;;10.50;3.60;;;6.60;99.90;;;;;;5035744;28;20454;-56
2023/02/01 01:23:53;;;;;;;11.53;4.00;;;6.60;99.90;;;;;;5035510;28;20986;-55
2023/02/01 01:26:22;;;;;;;16.17;4.70;;;6.60;99.90;;;;;;5035899;28;20450;-56
2023/02/01 01:28:49;;;;;;;14.67;3.97;;;6.50;99.90;;;;;;5035826;28;20451;-56
2023/02/01 01:31:18;;;;;;;18.40;4.43;;;6.50;99.90;;;;;;5035753;28;20486;-56
2023/02/01 01:33:48;;;;;;;15.93;4.07;;;6.50;99.90;;;;;;5035709;28;20962;-56
2023/02/01 01:36:16;;;;;;;20.43;5.37;;;6.50;99.90;;;;;;5035709;28;20431;-56
2023/02/01 01:38:43;;;;;;;13.90;4.70;;;6.50;99.90;;;;;;5035342;28;20470;-56
2023/02/01 01:41:14;;;;;;;12.73;4.50;;;6.50;99.90;;;;;;5035617;28;20466;-56
2023/02/01 01:43:55;;;;;;;12.50;4.43;;;6.50;99.90;;;;;;5035445;28;20481;-56
2023/02/01 01:46:24;;;;;;;17.20;4.80;;;6.40;99.90;;;;;;5035601;28;20794;-56
2023/02/01 01:49:00;;;;;;;10.93;4.33;;;6.40;99.90;;;;;;5035717;28;20450;-56
2023/02/01 01:51:30;;;;;;;15.70;5.20;;;6.40;99.90;;;;;;5035372;28;20467;-56
2023/02/01 01:54:04;;;;;;;12.33;4.07;;;6.40;99.90;;;;;;5034994;28;20983;-56
2023/02/01 01:56:34;;;;;;;18.90;4.30;;;6.50;99.90;;;;;;5033616;28;20431;-56
2023/02/01 01:59:02;;;;;;;14.50;4.60;;;6.50;99.90;;;;;;5035186;28;20826;-56
2023/02/01 02:01:29;;;;;;;12.53;4.63;;;6.50;99.90;;;;;;5035277;28;20448;-56
2023/02/01 02:04:00;;;;;;;14.30;4.30;;;6.50;99.90;;;;;;5034750;28;20846;-56
2023/02/01 02:06:38;;;;;;;14.30;4.00;;;6.50;99.90;;;;;;5035101;28;20450;-56
2023/02/01 02:09:05;;;;;;;9.20;4.23;;;6.50;99.90;;;;;;5033547;28;20844;-56
2023/02/01 02:11:31;;;;;;;16.73;4.80;;;6.50;99.90;;;;;;5035003;28;20503;-56
2023/02/01 02:13:59;;;;;;;18.57;4.10;;;6.50;99.90;;;;;;5028031;28;20487;-56
2023/02/01 02:16:59;;;;;;;12.80;5.73;;;6.50;99.90;;;;;;5015405;28;20459;-56
2023/02/01 02:20:04;;;;;;;16.47;5.07;;;6.50;99.90;;;;;;5015436;28;20436;-56
2023/02/01 02:23:01;;;;;;;21.90;5.00;;;6.60;99.90;;;;;;5015268;28;20444;-56
2023/02/01 02:25:59;;;;;;;21.83;5.27;;;6.60;99.90;;;;;;5015006;28;20443;-56
2023/02/01 02:28:46;;;;;;;10.50;4.50;;;6.60;99.90;;;;;;4982717;28;20453;-56
2023/02/01 02:31:41;;;;;;;17.33;4.47;;;6.60;99.90;;;;;;5014821;28;20482;-56
2023/02/01 02:34:19;;;;;;;15.80;6.13;;;6.60;99.90;;;;;;5014857;28;20455;-56
2023/02/01 02:36:56;;;;;;;19.73;6.30;;;6.60;99.90;;;;;;5014813;28;20428;-56
2023/02/01 02:39:35;;;;;;;15.70;4.93;;;6.70;99.90;;;;;;5014317;28;20468;-56
2023/02/01 02:47:51;;;;;;;17.33;5.27;;;6.70;99.90;;;;;;5015025;28;20407;-55
2023/02/01 03:04:26;;;;;;;16.57;5.60;;;6.70;99.90;;;;;;5014927;28;20502;-54
2023/02/01 03:06:55;;;;;;;16.47;5.90;;;6.60;99.90;;;;;;5014108;28;20959;-55
2023/02/01 03:09:26;;;;;;;15.70;5.33;;;6.60;99.90;;;;;;5013685;28;20455;-54
2023/02/01 03:14:47;;;;;;;18.80;5.30;;;6.70;99.90;;;;;;5014346;28;20443;-54
2023/02/01 03:17:19;;;;;;;24.67;5.40;;;6.70;99.90;;;;;;5014361;28;20447;-54
2023/02/01 03:19:50;;;;;;;18.03;5.13;;;6.70;99.90;;;;;;5014331;28;20431;-54
2023/02/01 03:22:21;;;;;;;14.97;4.70;;;6.70;99.90;;;;;;5014011;28;20555;-55
2023/02/01 03:24:52;;;;;;;12.53;4.70;;;6.60;99.90;;;;;;5013938;28;20904;-54
2023/02/01 03:27:25;;;;;;;15.00;4.50;;;6.60;99.90;;;;;;5014231;28;20435;-55
2023/02/01 03:30:00;;;;;;;14.93;5.57;;;6.70;99.90;;;;;;5014235;28;20438;-54
2023/02/01 03:32:26;;;;;;;18.83;4.97;;;6.70;99.90;;;;;;5012728;28;20611;-55
2023/02/01 03:34:54;;;;;;;19.03;4.93;;;6.70;99.90;;;;;;5013938;28;20439;-55
2023/02/01 03:37:26;;;;;;;15.97;4.10;;;6.70;99.90;;;;;;5013462;28;21035;-55
2023/02/01 03:39:58;;;;;;;14.13;4.30;;;6.70;99.90;;;;;;5013971;28;20436;-55
2023/02/01 03:42:32;;;;;;;15.13;5.23;;;6.80;99.90;;;;;;5013515;28;20436;-55
2023/02/01 03:45:06;;;;;;;13.80;4.73;;;6.70;99.90;;;;;;5013875;28;20439;-54
2023/02/01 03:47:37;;;;;;;16.70;4.57;;;6.80;99.90;;;;;;5013656;28;20443;-55
2023/02/01 03:50:07;;;;;;;21.97;4.67;;;6.80;99.90;;;;;;5013636;28;20487;-55
2023/02/01 03:52:40;;;;;;;13.97;4.13;;;6.80;99.90;;;;;;5013186;28;20889;-55
2023/02/01 03:55:08;;;;;;;15.10;4.40;;;6.80;99.90;;;;;;5013703;28;20447;-55
2023/02/01 03:57:38;;;;;;;18.23;4.70;;;6.80;99.90;;;;;;5013809;28;20447;-55
2023/02/01 04:00:09;;;;;;;11.70;4.70;;;6.80;99.90;;;;;;5013373;28;20936;-55
2023/02/01 04:02:36;;;;;;;25.33;5.03;;;6.80;99.90;;;;;;5013669;28;20439;-55
2023/02/01 04:05:03;;;;;;;16.53;4.10;;;6.80;99.90;;;;;;5013453;28;20459;-55
2023/02/01 04:07:30;;;;;;;16.87;4.00;;;6.80;99.90;;;;;;5014069;28;20842;-55
2023/02/01 04:09:58;;;;;;;14.80;4.00;;;6.70;99.90;;;;;;5012476;28;20458;-55
2023/02/01 04:12:25;;;;;;;17.40;5.33;;;6.70;99.90;;;;;;5013579;28;20478;-55
2023/02/01 04:14:51;;;;;;;13.93;4.33;;;6.70;99.90;;;;;;5013738;28;20795;-55
2023/02/01 04:17:18;;;;;;;20.30;5.30;;;6.70;99.90;;;;;;5013704;28;20520;-55
2023/02/01 04:19:45;;;;;;;13.30;4.53;;;6.70;99.90;;;;;;5013876;28;20465;-55
2023/02/01 04:22:12;;;;;;;16.10;3.83;;;6.70;99.90;;;;;;5017526;28;20439;-55
2023/02/01 04:24:39;;;;;;;14.30;3.90;;;6.70;99.90;;;;;;5016935;28;21054;-55
2023/02/01 04:27:08;;;;;;;13.27;4.67;;;6.60;99.90;;;;;;5017303;28;20459;-55
2023/02/01 04:29:34;;;;;;;22.53;4.87;;;6.60;99.90;;;;;;5017231;28;20464;-55
2023/02/01 04:32:01;;;;;;;18.17;4.50;;;6.60;99.90;;;;;;5017064;28;20490;-55
2023/02/01 04:34:28;;;;;;;16.00;3.63;;;6.50;99.90;;;;;;5017003;28;20471;-55
2023/02/01 04:36:55;;;;;;;22.77;4.87;;;6.50;99.90;;;;;;5016765;28;20853;-55
2023/02/01 04:39:21;;;;;;;21.57;5.87;;;6.50;99.90;;;;;;5016780;28;20463;-55
2023/02/01 04:41:49;;;;;;;15.67;3.80;;;6.40;99.90;;;;;;5016904;28;20518;-55
2023/02/01 04:44:19;;;;;;;13.40;4.37;;;6.40;99.90;;;;;;5016815;28;20478;-55
2023/02/01 04:46:47;;;;;;;17.30;4.10;;;6.40;99.90;;;;;;5016937;28;20439;-55
2023/02/01 04:49:15;;;;;;;21.17;5.00;;;6.40;99.90;;;;;;5016587;28;20827;-55
2023/02/01 04:51:42;;;;;;;12.10;3.73;;;6.40;99.90;;;;;;5016563;28;20490;-55
2023/02/01 04:54:11;;;;;;;18.33;4.43;;;6.30;99.90;;;;;;5016711;28;20476;-55
2023/02/01 04:56:38;;;;;;;12.83;3.77;;;6.30;99.90;;;;;;5016799;28;20439;-55
2023/02/01 04:59:05;;;;;;;16.80;3.60;;;6.30;99.90;;;;;;5016824;28;20460;-55
2023/02/01 05:01:33;;;;;;;17.50;4.60;;;6.30;99.90;;;;;;5016599;28;20435;-55
2023/02/01 05:04:00;;;;;;;11.37;4.10;;;6.30;99.90;;;;;;5016453;28;20478;-55
2023/02/01 05:06:27;;;;;;;22.23;4.73;;;6.30;99.90;;;;;;5016460;28;20457;-55
2023/02/01 05:08:54;;;;;;;15.10;3.63;;;6.30;99.90;;;;;;5016102;28;20974;-55
2023/02/01 05:14:04;;;;;;;17.40;4.47;;;6.30;99.90;;;;;;5015967;28;21008;-54
2023/02/01 05:16:33;;;;;;;18.33;4.67;;;6.30;99.90;;;;;;5016633;28;20433;-55
2023/02/01 05:19:00;;;;;;;13.83;3.57;;;6.30;99.90;;;;;;5015792;28;20827;-55
2023/02/01 05:21:26;;;;;;;20.07;4.27;;;6.30;99.90;;;;;;5016131;28;20486;-54
2023/02/01 05:24:12;;;;;;;13.10;4.17;;;6.30;99.90;;;;;;5016096;28;20543;-55
2023/02/01 05:26:40;;;;;;;11.07;3.33;;;6.20;99.90;;;;;;5015884;28;20810;-54
2023/02/01 05:29:08;;;;;;;15.27;3.67;;;6.20;99.90;;;;;;5015833;28;20911;-55
2023/02/01 05:31:37;;;;;;;11.37;3.10;;;6.20;99.90;;;;;;5014995;28;20471;-56
2023/02/01 05:34:04;;;;;;;14.30;4.50;;;6.20;99.90;;;;;;5015984;28;20482;-56
2023/02/01 05:36:31;;;;;;;16.23;3.10;;;6.20;99.90;;;;;;5015933;28;20455;-55
2023/02/01 05:38:58;;;;;;;14.37;3.10;;;6.20;99.90;;;;;;5015868;28;20474;-56
2023/02/01 05:41:25;;;;;;;17.60;4.03;;;6.10;99.90;;;;;;5016012;28;20806;-56
2023/02/01 05:43:52;;;;;;;18.57;4.17;;;6.10;99.90;;;;;;5015728;28;20482;-56
2023/02/01 05:46:19;;;;;;;13.13;3.10;;;6.00;99.90;;;;;;5015763;28;20451;-56
2023/02/01 05:48:47;;;;;;;19.07;4.27;;;6.10;99.90;;;;;;5016026;28;20448;-56
2023/02/01 05:51:14;;;;;;;14.50;3.40;;;6.10;99.90;;;;;;5015588;28;20480;-56
2023/02/01 05:53:41;;;;;;;17.10;4.83;;;6.10;99.90;;;;;;5015188;28;20486;-56
2023/02/01 05:56:08;;;;;;;15.53;4.10;;;6.10;99.90;;;;;;5015527;28;20459;-56
2023/02/01 05:58:34;;;;;;;18.30;4.03;;;6.10;99.90;;;;;;5015400;28;20458;-56
2023/02/01 06:01:01;;;;;;;16.30;3.90;;;6.10;99.90;;;;;;5015438;28;20448;-56
2023/02/01 06:03:29;;;;;;;24.70;4.27;;;6.10;99.90;;;;;;5015425;28;20474;-56
2023/02/01 06:05:57;;;;;;;16.63;4.60;;;6.10;99.90;;;;;;5015492;28;20463;-56
2023/02/01 06:08:25;;;;;;;14.10;3.13;;;6.10;99.90;;;;;;5015245;28;20459;-56
2023/02/01 06:10:58;;;;;;;18.50;5.47;;;6.10;99.90;;;;;;5015254;28;20437;-56
2023/02/01 06:13:24;;;;;;;11.13;3.63;;;6.10;99.90;;;;;;5015166;28;20466;-57
2023/02/01 06:15:51;;;;;;;17.97;5.03;;;6.10;99.90;;;;;;5015190;28;20448;-55
2023/02/01 06:18:18;;;;;;;21.23;3.23;;;6.00;99.90;;;;;;5015145;28;20454;-55
2023/02/01 06:20:45;;;;;;;20.60;4.60;;;6.00;99.90;;;;;;5015281;28;20513;-55
2023/02/01 06:23:14;;;;;;;23.50;3.80;;;6.00;99.90;;;;;;5014677;28;21094;-55
2023/02/01 06:25:40;;;;;;;16.77;4.07;;;6.00;99.90;;;;;;5014947;28;20466;-56
2023/02/01 06:28:08;;;;;;;12.63;3.53;;;6.00;99.90;;;;;;5015012;28;20477;-55
2023/02/01 06:30:34;;;;;;;16.90;5.50;;;6.00;99.90;;;;;;5015009;28;20438;-55
2023/02/01 06:33:01;;;;;;;13.43;3.60;;;6.00;99.90;;;;;;5014590;28;20496;-56
2023/02/01 06:35:28;;;;;;;17.03;3.47;;;6.10;99.90;;;;;;5014897;28;20455;-56
2023/02/01 06:37:54;;;;;;;15.73;4.37;;;6.10;99.90;;;;;;5014585;28;20972;-56
2023/02/01 06:40:22;;;;;;;12.07;3.50;;;6.00;99.90;;;;;;5014944;28;20462;-56
2023/02/01 06:42:50;;;;;;;14.57;4.50;;;6.10;99.90;;;;;;5014500;28;20478;-56
2023/02/01 06:45:17;;;;;;;18.53;4.00;;;6.10;99.90;;;;;;5014563;28;20488;-56
2023/02/01 06:47:44;;;;;;;20.33;3.87;;;6.10;99.90;;;;;;5015032;28;20446;-56
2023/02/01 06:50:11;;;;;;;18.53;3.80;;;6.10;99.90;;;;;;5014931;28;20445;-56
2023/02/01 06:52:38;;;;;;;13.57;4.20;;;6.10;99.90;;;;;;5014770;28;20493;-56
2023/02/01 06:55:05;;;;;;;20.77;4.10;;;6.20;99.90;;;;;;5015375;28;20462;-55
2023/02/01 06:57:35;;;;;;;18.63;4.80;;;6.20;99.90;;;;;;5014581;28;20800;-55
2023/02/01 07:00:02;;;;;;;14.33;3.47;;;6.10;99.90;;;;;;5014913;28;20509;-55
2023/02/01 07:02:29;;;;;;;15.60;4.40;;;6.20;99.90;;;;;;5015799;28;20452;-55
2023/02/01 07:04:56;;;;;;;20.43;4.50;;;6.20;99.90;;;;;;5015528;28;20451;-55
2023/02/01 07:07:23;;;;;;;26.07;3.70;;;6.20;99.90;;;;;;5015094;28;20458;-55
2023/02/01 07:09:50;;;;;;;25.37;4.50;;;6.20;99.90;;;;;;5015140;28;20442;-55
2023/02/01 07:12:18;;;;;;;11.87;5.40;;;6.20;99.90;;;;;;5015321;28;20832;-55
2023/02/01 07:14:46;;;;;;;21.80;4.70;;;6.20;99.90;;;;;;5015424;28;20476;-55
2023/02/01 07:17:13;;;;;;;15.37;3.60;;;6.20;99.90;;;;;;5015835;28;20455;-55
2023/02/01 07:19:39;;;;;;;19.63;5.10;;;6.10;99.90;;;;;;5014591;28;20833;-56
2023/02/01 07:22:06;;;;;;;16.13;3.60;;;6.10;99.90;;;;;;5014185;28;20432;-55
2023/02/01 07:24:34;;;;;;;13.00;3.70;;;6.20;99.90;;;;;;5014195;28;20482;-55
2023/02/01 07:27:01;;;;;;;19.40;4.83;;;6.20;99.90;;;;;;5013941;28;20451;-55
2023/02/01 07:29:28;;;;;;;21.50;4.00;;;6.20;99.90;;;;;;5013638;28;20970;-55
2023/02/01 07:31:56;;;;;;;18.20;4.50;;;6.20;99.90;;;;;;5014219;28;20471;-55
2023/02/01 07:34:23;;;;;;;17.47;4.60;;;6.20;99.90;;;;;;5014012;28;20483;-55
2023/02/01 07:36:50;;;;;;;17.33;3.70;;;6.20;99.90;;;;;;5013899;28;20461;-55
2023/02/01 07:39:16;;;;;;;17.53;4.10;;;6.20;99.90;;;;;;5013713;28;20459;-56
2023/02/01 07:41:43;;;;;;;13.97;4.30;;;6.20;99.90;;;;;;5013709;28;20459;-55
2023/02/01 07:44:10;;;;;;;21.20;4.90;;;6.30;99.90;;;;;;5013617;28;20480;-56
2023/02/01 07:46:39;;;;;;;9.60;3.43;;;6.30;99.90;;;;;;5013765;28;20549;-55
2023/02/01 07:49:07;;;;;;;22.00;4.53;;;6.30;99.90;;;;;;5013426;28;20451;-56
2023/02/01 07:51:34;;;;;;;18.83;3.87;;;6.30;99.90;;;;;;5013627;28;20545;-56
2023/02/01 07:54:00;;;;;;;15.20;3.90;;;6.30;99.90;;;;;;5013570;28;20470;-55
2023/02/01 07:56:27;;;;;;;27.33;4.53;;;6.30;99.90;;;;;;5013069;28;20454;-55
2023/02/01 07:58:55;;;;;;;16.40;3.50;;;6.40;99.90;;;;;;5013876;28;20463;-55
2023/02/01 08:01:24;;;;;;;26.40;4.60;;;6.40;99.90;;;;;;5013507;28;20491;-55
2023/02/01 08:03:52;;;;;;;25.60;4.60;;;6.40;99.90;;;;;;5011996;28;21057;-56
2023/02/01 08:06:21;;;;;;;18.20;5.20;;;6.40;99.90;;;;;;5013529;28;20493;-55
2023/02/01 08:08:48;;;;;;;14.17;5.40;;;6.40;99.90;;;;;;5013814;28;20447;-56
2023/02/01 08:11:15;;;;;;;14.93;3.93;;;6.40;99.90;;;;;;5013459;28;20452;-57
2023/02/01 08:13:42;;;;;;;14.13;3.83;;;6.30;99.90;;;;;;5013076;28;20490;-54
2023/02/01 08:16:12;;;;;;;13.00;3.70;;;6.30;99.90;;;;;;5013475;28;20453;-55
2023/02/01 08:18:39;;;;;;;27.00;4.40;;;6.30;99.90;;;;;;5014345;28;20436;-55
2023/02/01 08:21:08;;;;;;;21.53;4.07;;;6.30;99.90;;;;;;5012996;28;20458;-54
2023/02/01 08:23:37;;;;;;;13.00;3.70;;;6.40;99.90;;;;;;5013318;28;20883;-56
2023/02/01 08:26:09;;;;;;;10.90;3.03;;;6.40;99.90;;;;;;5013376;28;20450;-54
2023/02/01 08:28:35;;;;;;;14.93;4.50;;;6.30;99.90;;;;;;5013471;28;20451;-56
2023/02/01 08:31:06;;;;;;;19.93;4.40;;;6.30;99.90;;;;;;5013233;28;20440;-55
2023/02/01 08:33:33;;;;;;;14.33;3.73;;;6.30;99.90;;;;;;5012855;28;20901;-58
2023/02/01 08:36:02;;;;;;;16.83;4.30;;;6.40;99.90;;;;;;5013276;28;20458;-56
2023/02/01 08:38:28;;;;;;;16.60;3.83;;;6.30;99.90;;;;;;5013045;28;20522;-56
2023/02/01 08:40:57;;;;;;;19.03;4.03;;;6.40;99.90;;;;;;5013185;28;20466;-56
2023/02/01 08:43:24;;;;;;;13.80;4.03;;;6.40;99.90;;;;;;5013077;28;20836;-56
2023/02/01 08:45:55;;;;;;;21.70;6.20;;;6.50;99.90;;;;;;5013245;28;20466;-56
2023/02/01 08:48:22;;;;;;;16.30;3.57;;;6.50;99.90;;;;;;5013437;28;20446;-56
2023/02/01 08:50:49;;;;;;;17.67;3.97;;;6.50;99.90;;;;;;5012827;28;20462;-56
2023/02/01 08:53:16;;;;;;;16.60;4.70;;;6.60;99.90;;;;;;5011694;28;20518;-56
2023/02/01 08:55:43;;;;;;;13.23;4.87;;;6.60;99.90;;;;;;5013319;28;20443;-56
2023/02/01 08:58:11;;;;;;;13.07;3.90;;;6.70;99.90;;;;;;5013006;28;20979;-56
2023/02/01 09:00:38;;;;;;;22.30;4.77;;;6.70;99.90;;;;;;5012952;28;20467;-56
2023/02/01 09:03:05;;;;;;;21.47;5.43;;;6.60;99.90;;;;;;5012954;28;20849;-56
2023/02/01 09:05:32;;;;;;;9.57;3.73;;;6.70;99.90;;;;;;5012937;28;20440;-56
2023/02/01 09:07:59;;;;;;;21.37;4.50;;;6.80;99.90;;;;;;5014915;28;20448;-57
2023/02/01 09:10:26;;;;;;;13.77;4.23;;;6.80;99.90;;;;;;5016123;28;20447;-56
2023/02/01 09:12:53;;;;;;;21.77;4.70;;;6.80;99.90;;;;;;5016431;28;20502;-56
2023/02/01 09:15:21;;;;;;;23.60;4.70;;;6.80;99.90;;;;;;5016653;28;20432;-56
2023/02/01 09:17:48;;;;;;;16.63;3.87;;;6.70;99.90;;;;;;5016078;28;20952;-56
2023/02/01 09:20:16;;;;;;;12.33;3.90;;;6.70;99.90;;;;;;5015978;28;20460;-56
2023/02/01 09:22:43;;;;;;;18.03;4.87;;;6.70;99.90;;;;;;5016117;28;20445;-55
2023/02/01 09:25:10;;;;;;;21.37;4.20;;;6.80;99.90;;;;;;5016196;28;20451;-56
2023/02/01 09:27:36;;;;;;;15.17;4.73;;;6.80;99.90;;;;;;5016201;28;20434;-56
2023/02/01 09:30:04;;;;;;;12.83;5.30;;;6.90;99.90;;;;;;5016079;28;20451;-56
2023/02/01 09:32:32;;;;;;;17.67;4.80;;;6.90;99.90;;;;;;5015851;28;20515;-54
2023/02/01 09:34:59;;;;;;;15.10;4.20;;;6.90;99.90;;;;;;5015814;28;20967;-55
2023/02/01 09:37:26;;;;;;;21.10;5.10;;;7.00;99.90;;;;;;5016085;28;20436;-55
2023/02/01 09:39:53;;;;;;;14.43;4.20;;;7.00;99.90;;;;;;5016034;28;20445;-56
2023/02/01 09:42:41;;;;;;;14.97;4.97;;;7.00;99.90;;;;;;5015765;28;20456;-57
2023/02/01 09:45:19;;;;;;;18.83;5.23;;;7.00;99.90;;;;;;5015727;28;20452;-56
2023/02/01 09:47:52;;;;;;;15.20;4.43;;;7.00;99.90;;;;;;5015818;28;20451;-54
2023/02/01 09:50:23;;;;;;;11.87;4.10;;;6.90;99.90;;;;;;5015515;28;20948;-56
2023/02/01 09:52:58;;;;;;;21.03;5.40;;;6.90;99.90;;;;;;5015309;28;21071;-56
2023/02/01 09:55:34;;;;;;;13.27;3.70;;;6.90;99.90;;;;;;5015538;28;20452;-56
2023/02/01 09:58:04;;;;;;;20.30;5.23;;;6.90;99.90;;;;;;5015802;28;20470;-55
2023/02/01 10:00:36;;;;;;;17.80;5.50;;;7.00;99.90;;;;;;5015522;28;20507;-56
2023/02/01 10:03:11;;;;;;;12.23;4.27;;;7.00;99.90;;;;;;5015355;28;20466;-55
2023/02/01 10:05:53;;;;;;;14.33;4.13;;;7.10;99.90;;;;;;5015410;28;20431;-55
2023/02/01 10:08:33;;;;;;;18.03;4.80;;;7.10;99.90;;;;;;5015611;28;20453;-55
2023/02/01 10:11:12;;;;;;;14.80;4.03;;;7.10;99.90;;;;;;5015325;28;20440;-55
2023/02/01 10:13:54;;;;;;;17.67;4.10;;;7.10;99.90;;;;;;5014013;28;20503;-55
2023/02/01 10:16:33;;;;;;;13.00;4.40;;;7.20;99.90;;;;;;5015232;28;20441;-56
2023/02/01 10:19:33;;;;;;;14.80;4.17;;;7.20;99.90;;;;;;5014513;28;20439;-56
2023/02/01 10:22:03;;;;;;;18.70;5.77;;;7.30;99.90;;;;;;5015164;28;20435;-55
2023/02/01 10:24:40;;;;;;;14.87;4.17;;;7.30;99.90;;;;;;5014979;28;20472;-56
2023/02/01 10:27:20;;;;;;;18.43;4.67;;;7.40;99.90;;;;;;5015135;28;20851;-57
2023/02/01 10:29:52;;;;;;;15.67;3.93;;;7.40;99.90;;;;;;5015135;28;20460;-55
2023/02/01 10:32:23;;;;;;;10.60;4.23;;;7.50;99.90;;;;;;5015124;28;20439;-56
2023/02/01 10:34:57;;;;;;;10.13;3.43;;;7.50;99.90;;;;;;5014636;28;20513;-56
2023/02/01 10:37:29;;;;;;;19.00;4.53;;;7.60;99.90;;;;;;5014802;28;20476;-55
2023/02/01 10:39:59;;;;;;;17.10;4.30;;;7.70;99.90;;;;;;5014515;28;20447;-54
2023/02/01 10:42:29;;;;;;;9.57;3.43;;;7.70;99.90;;;;;;5014632;28;20460;-54
2023/02/01 10:44:58;;;;;;;13.30;4.47;;;7.80;99.90;;;;;;5014609;28;20451;-56
2023/02/01 10:47:25;;;;;;;17.23;5.23;;;7.90;99.90;;;;;;5013417;28;20458;-55
2023/02/01 10:50:03;;;;;;;25.40;5.33;;;7.90;99.90;;;;;;5014643;28;20456;-56
2023/02/01 10:52:39;;;;;;;13.50;4.43;;;8.10;99.90;;;;;;5014441;28;20442;-56
2023/02/01 10:55:34;;;;;;;19.00;4.07;;;8.10;99.30;;;;;;5014611;28;20433;-55
2023/02/01 10:58:02;;;;;;;19.20;4.40;;;8.10;99.00;;;;;;5014273;28;20888;-56
2023/02/01 11:00:35;;;;;;;12.17;3.93;;;8.10;99.50;;;;;;5014424;28;20441;-56
2023/02/01 11:03:19;;;;;;;16.13;4.90;;;8.20;99.60;;;;;;5014287;28;20460;-55
2023/02/01 11:05:49;;;;;;;14.37;3.60;;;8.20;98.50;;;;;;5014618;28;20437;-56
2023/02/01 11:08:17;;;;;;;20.30;6.83;;;8.20;99.10;;;;;;5014006;28;21014;-55
2023/02/01 11:10:44;;;;;;;14.80;4.47;;;8.20;98.90;;;;;;5014187;28;20443;-55
2023/02/01 11:13:16;;;;;;;12.80;3.97;;;8.20;99.00;;;;;;5013934;28;20488;-54
2023/02/01 11:15:45;;;;;;;20.13;4.83;;;8.20;99.40;;;;;;5014237;28;20857;-55
2023/02/01 11:18:19;;;;;;;9.30;5.03;;;8.30;99.10;;;;;;5013902;28;20483;-54
2023/02/01 11:20:51;;;;;;;18.90;4.47;;;8.40;99.10;;;;;;5014196;28;20452;-56
2023/02/01 11:23:22;;;;;;;17.30;4.80;;;8.40;98.70;;;;;;5013610;28;20990;-55
2023/02/01 11:25:52;;;;;;;14.63;4.10;;;8.50;98.60;;;;;;5014260;28;20435;-55
2023/02/01 11:28:21;;;;;;;16.53;4.83;;;8.50;97.80;;;;;;5014017;28;20459;-56
2023/02/01 11:30:48;;;;;;;20.67;5.27;;;8.50;98.10;;;;;;5013182;28;20820;-55
2023/02/01 11:33:18;;;;;;;15.57;4.77;;;8.40;98.10;;;;;;5013790;28;20503;-55
2023/02/01 11:35:46;;;;;;;22.87;4.90;;;8.50;98.20;;;;;;5013556;28;20975;-56
2023/02/01 11:38:21;;;;;;;18.60;3.90;;;8.40;98.00;;;;;;5013690;28;20471;-55
2023/02/01 11:40:49;;;;;;;12.87;4.20;;;8.40;98.50;;;;;;5013810;28;20468;-56
2023/02/01 11:43:22;;;;;;;18.33;4.93;;;8.50;98.30;;;;;;5013562;28;20517;-55
2023/02/01 11:45:58;;;;;;;16.07;3.97;;;8.50;97.80;;;;;;5013811;28;20438;-55
2023/02/01 11:48:27;;;;;;;13.00;5.30;;;8.50;98.10;;;;;;5013503;28;20969;-56
2023/02/01 11:51:22;;;;;;;12.43;3.87;;;8.40;97.70;;;;;;5013691;28;20453;-55
2023/02/01 11:54:06;;;;;;;10.50;3.27;;;8.50;98.00;;;;;;5013585;28;20526;-55
2023/02/01 11:56:37;;;;;;;14.67;3.80;;;8.50;97.30;;;;;;5014015;28;20433;-55
2023/02/01 11:59:18;;;;;;;11.73;3.40;;;8.50;97.30;;;;;;5013628;28;20494;-55
2023/02/01 12:02:00;;;;;;;15.00;3.80;;;8.50;97.40;;;;;;5013622;28;20447;-55
2023/02/01 12:05:00;;;;;;;13.87;3.63;;;8.50;97.10;;;;;;5013528;28;20471;-56
2023/02/01 12:07:37;;;;;;;13.90;3.70;;;8.60;96.20;;;;;;5013555;28;20435;-56
2023/02/01 12:10:19;;;;;;;12.73;3.90;;;8.60;95.80;;;;;;5013641;28;20876;-56
2023/02/01 12:12:53;;;;;;;8.07;3.80;;;8.60;96.20;;;;;;5013472;28;20861;-57
2023/02/01 12:15:35;;;;;;;8.30;4.10;;;8.60;96.10;;;;;;5013616;28;20432;-56
2023/02/01 12:18:21;;;;;;;12.90;3.67;;;8.60;96.20;;;;;;5013247;28;20967;-56
2023/02/01 12:21:04;;;;;;;14.77;3.87;;;8.60;95.60;;;;;;5013192;28;20439;-56
2023/02/01 12:23:46;;;;;;;16.73;2.53;;;8.60;95.60;;;;;;5013418;28;20471;-56
2023/02/01 12:26:34;;;;;;;10.10;3.17;;;8.70;95.90;;;;;;5013397;28;20439;-56
2023/02/01 12:29:20;;;;;;;17.67;3.50;;;8.70;95.90;;;;;;5014064;28;20911;-56
2023/02/01 12:32:06;;;;;;;11.93;3.47;;;8.60;95.80;;;;;;5013338;28;20439;-56
2023/02/01 12:35:00;;;;;;;15.13;3.83;;;8.50;96.00;;;;;;5013018;28;20491;-55
2023/02/01 12:37:46;;;;;;;13.80;3.90;;;8.50;96.20;;;;;;5013467;28;20467;-56
2023/02/01 12:40:36;;;;;;;11.50;4.00;;;8.40;96.30;;;;;;5013280;28;20532;-56
2023/02/01 12:43:10;;;;;;;9.23;2.53;;;8.40;96.40;;;;;;5016937;28;20464;-55
2023/02/01 12:45:41;;;;;;;14.00;3.50;;;8.40;96.50;;;;;;5017016;28;20432;-55
2023/02/01 12:48:22;;;;;;;12.13;3.37;;;8.40;96.50;;;;;;5016876;28;20779;-55
2023/02/01 12:50:54;;;;;;;12.40;3.87;;;8.40;96.40;;;;;;5016816;28;20444;-55
2023/02/01 12:53:25;;;;;;;12.07;3.70;;;8.40;96.60;;;;;;5016648;28;20474;-55
2023/02/01 12:55:55;;;;;;;7.47;2.50;;;8.50;96.90;;;;;;5016455;28;20799;-55
2023/02/01 12:58:28;;;;;;;10.23;3.20;;;8.50;96.30;;;;;;5016790;28;20466;-55
2023/02/01 13:01:01;;;;;;;13.63;3.17;;;8.50;96.50;;;;;;5016583;28;20437;-57
2023/02/01 13:03:37;;;;;;;12.73;2.53;;;8.50;96.50;;;;;;5017944;28;20463;-58
2023/02/01 13:06:09;;;;;;;10.53;2.97;;;8.50;96.80;;;;;;5017173;28;20982;-56
2023/02/01 13:08:42;;;;;;;11.53;2.90;;;8.60;96.30;;;;;;5016943;28;20441;-56
2023/02/01 13:11:14;;;;;;;11.90;4.37;;;8.60;96.40;;;;;;5016489;28;20445;-56
2023/02/01 13:13:53;;;;;;;13.37;3.23;;;8.50;96.20;;;;;;5016148;28;21002;-56
2023/02/01 13:16:28;;;;;;;10.73;3.33;;;8.50;96.50;;;;;;5016478;28;20474;-56
2023/02/01 13:19:01;;;;;;;10.70;2.97;;;8.50;96.20;;;;;;5016874;28;20437;-57
2023/02/01 13:21:33;;;;;;;9.63;3.37;;;8.50;96.60;;;;;;5017306;28;20528;-57
2023/02/01 13:24:00;;;;;;;11.33;3.00;;;8.60;96.80;;;;;;5016468;28;20547;-57
2023/02/01 13:26:26;;;;;;;11.40;3.00;;;8.60;96.80;;;;;;5016703;28;20458;-57
2023/02/01 13:28:59;;;;;;;11.37;3.57;;;8.60;96.80;;;;;;5016968;28;20489;-57
2023/02/01 13:31:53;;;;;;;8.23;2.67;;;8.60;97.10;;;;;;5016784;28;20445;-57